createdAt,value
2023-02-22T00:02:38.995Z,91.30
2023-02-22T00:07:41.048Z,91.30
2023-02-22T00:12:43.510Z,91.20
2023-02-22T00:17:45.918Z,91.20
2023-02-22T00:22:51.576Z,91.20
2023-02-22T00:27:53.666Z,91.20
2023-02-22T00:32:56.987Z,91.20
2023-02-22T00:38:01.266Z,91.10
2023-02-22T00:43:05.014Z,91.10
2023-02-22T00:48:08.597Z,91.10
2023-02-22T00:53:11.397Z,91.10
2023-02-22T00:58:13.357Z,91.10
2023-02-22T01:03:18.697Z,91.00
2023-02-22T01:08:20.990Z,91.00
2023-02-22T01:13:23.120Z,90.90
2023-02-22T01:18:25.908Z,90.90
2023-02-22T01:23:28.129Z,91.00
2023-02-22T01:28:33.815Z,90.90
2023-02-22T01:33:37.256Z,90.90
2023-02-22T01:38:39.470Z,90.90
2023-02-22T01:43:41.303Z,90.80
2023-02-22T01:48:54.983Z,90.70
2023-02-22T01:54:18.338Z,90.80
2023-02-22T01:59:22.026Z,90.70
2023-02-22T02:04:25.607Z,90.70
2023-02-22T02:09:36.979Z,90.80
2023-02-22T02:14:40.931Z,90.70
2023-02-22T02:19:50.567Z,90.70
2023-02-22T02:25:30.914Z,90.70
2023-02-22T02:30:48.817Z,90.70
2023-02-22T02:36:03.891Z,90.70
2023-02-22T02:41:12.116Z,90.70
2023-02-22T02:46:43.394Z,90.70
2023-02-22T02:51:50.350Z,91.00
2023-02-22T02:56:52.502Z,90.60
2023-02-22T03:02:13.128Z,90.70
2023-02-22T03:07:27.961Z,90.60
2023-02-22T03:12:47.472Z,90.60
2023-02-22T03:17:57.998Z,90.50
2023-02-22T03:23:24.792Z,90.50
2023-02-22T03:28:29.079Z,90.50
2023-02-22T03:33:43.044Z,90.50
2023-02-22T03:38:46.990Z,90.40
2023-02-22T03:43:54.895Z,90.40
2023-02-22T03:49:03.429Z,90.50
2023-02-22T03:54:16.413Z,90.50
2023-02-22T03:59:27.445Z,90.40
2023-02-22T04:04:29.533Z,90.50
2023-02-22T04:09:32.757Z,90.40
2023-02-22T04:14:35.106Z,90.40
2023-02-22T04:19:36.990Z,90.40
2023-02-22T04:24:39.933Z,90.30
2023-02-22T04:29:42.227Z,90.30
2023-02-22T04:34:44.276Z,90.40
2023-02-22T04:39:46.319Z,90.40
2023-02-22T04:44:48.418Z,90.40
2023-02-22T04:49:51.394Z,90.40
2023-02-22T04:54:54.564Z,90.40
2023-02-22T04:59:56.851Z,90.40
2023-02-22T05:05:00.058Z,90.40
2023-02-22T05:10:02.853Z,90.30
2023-02-22T05:15:06.398Z,90.30
2023-02-22T05:20:10.328Z,90.40
2023-02-22T05:25:12.282Z,90.40
2023-02-22T05:30:14.547Z,90.40
2023-02-22T05:35:17.050Z,90.40
2023-02-22T05:40:24.561Z,90.40
2023-02-22T05:45:28.150Z,90.40
2023-02-22T05:50:33.239Z,90.40
2023-02-22T05:55:35.614Z,90.40
2023-02-22T06:00:37.806Z,90.40
2023-02-22T06:05:39.943Z,90.40
2023-02-22T06:10:41.911Z,90.50
2023-02-22T06:15:43.801Z,90.50
2023-02-22T06:20:45.730Z,90.50
2023-02-22T06:25:48.395Z,90.50
2023-02-22T06:30:50.356Z,90.60
2023-02-22T06:35:52.248Z,90.60
2023-02-22T06:40:55.375Z,90.70
2023-02-22T06:45:57.365Z,90.70
2023-02-22T06:50:59.279Z,90.80
2023-02-22T06:56:02.200Z,90.80
2023-02-22T07:01:04.318Z,90.90
2023-02-22T07:06:07.565Z,90.90
2023-02-22T07:11:09.430Z,90.90
2023-02-22T07:16:11.324Z,90.90
2023-02-22T07:21:13.141Z,91.00
2023-02-22T07:26:15.373Z,91.10
2023-02-22T07:31:18.253Z,91.10
2023-02-22T07:36:20.270Z,91.20
2023-02-22T07:41:23.104Z,91.30
2023-02-22T07:46:24.984Z,91.40
2023-02-22T07:51:27.069Z,91.50
2023-02-22T07:56:28.985Z,91.50
2023-02-22T08:01:31.881Z,91.70
2023-02-22T08:06:34.410Z,91.80
2023-02-22T08:11:36.353Z,91.90
2023-02-22T08:16:38.217Z,92.00
2023-02-22T08:21:40.052Z,92.50
2023-02-22T08:26:48.124Z,92.30
2023-02-22T08:31:54.177Z,92.50
2023-02-22T08:36:56.238Z,92.60
2023-02-22T08:41:58.151Z,92.70
2023-02-22T08:47:00.017Z,92.90
2023-02-22T08:52:01.873Z,93.10
2023-02-22T08:57:03.936Z,93.30
2023-02-22T09:02:06.764Z,93.60
2023-02-22T09:07:08.907Z,93.90
2023-02-22T09:12:11.227Z,94.20
2023-02-22T09:17:13.196Z,94.30
2023-02-22T09:22:15.743Z,94.20
2023-02-22T09:27:20.066Z,94.30
2023-02-22T09:32:23.390Z,95.40
2023-02-22T09:37:25.320Z,95.70
2023-02-22T09:42:35.298Z,95.90
2023-02-22T09:47:43.039Z,95.90
2023-02-22T09:53:04.279Z,95.80
2023-02-22T09:58:24.941Z,95.50
2023-02-22T10:03:34.924Z,95.60
2023-02-22T10:08:38.795Z,95.50
2023-02-22T10:14:05.445Z,95.30
2023-02-22T10:19:28.051Z,95.30
2023-02-22T10:25:12.846Z,95.50
2023-02-22T10:30:34.207Z,95.50
2023-02-22T10:35:38.637Z,95.10
2023-02-22T10:40:46.380Z,95.30
2023-02-22T10:45:48.388Z,95.40
2023-02-22T10:50:53.330Z,95.80
2023-02-22T10:56:13.259Z,96.20
2023-02-22T11:01:40.831Z,96.60
2023-02-22T11:06:49.296Z,97.00
2023-02-22T11:12:08.968Z,96.80
2023-02-22T11:17:14.153Z,97.00
2023-02-22T11:22:41.136Z,97.30
2023-02-22T11:27:47.031Z,97.50
2023-02-22T11:33:23.412Z,97.10
2023-02-22T11:38:33.219Z,96.80
2023-02-22T11:43:44.310Z,96.70
2023-02-22T11:49:04.572Z,96.70
2023-02-22T11:54:39.677Z,96.70
2023-02-22T11:59:59.326Z,96.70
2023-02-22T12:05:19.457Z,97.00
2023-02-22T12:10:41.665Z,97.00
2023-02-22T12:16:05.153Z,97.10
2023-02-22T12:21:12.970Z,97.00
2023-02-22T12:26:23.091Z,97.00
2023-02-22T12:31:39.585Z,97.10
2023-02-22T12:36:47.128Z,97.20
2023-02-22T12:41:56.329Z,97.30
2023-02-22T12:47:02.575Z,97.60
2023-02-22T12:52:21.257Z,97.60
2023-02-22T12:57:49.105Z,97.30
2023-02-22T13:02:54.446Z,97.50
2023-02-22T13:08:11.375Z,97.50
2023-02-22T13:13:38.252Z,97.40
2023-02-22T13:18:57.789Z,97.20
2023-02-22T13:24:30.372Z,97.00
2023-02-22T13:29:37.930Z,96.90
2023-02-22T13:35:10.108Z,96.90
2023-02-22T13:40:46.605Z,97.00
2023-02-22T13:46:22.146Z,97.10
2023-02-22T13:51:32.513Z,97.20
2023-02-22T13:56:34.804Z,97.10
2023-02-22T14:01:48.747Z,97.10
2023-02-22T14:06:51.186Z,97.00
2023-02-22T14:11:56.711Z,96.90
2023-02-22T14:17:25.468Z,97.20
2023-02-22T14:22:30.509Z,96.70
2023-02-22T14:27:41.952Z,96.70
2023-02-22T14:32:43.938Z,96.60
2023-02-22T14:37:52.134Z,96.60
2023-02-22T14:43:19.919Z,96.70
2023-02-22T14:48:25.071Z,96.60
2023-02-22T14:53:49.177Z,96.70
2023-02-22T14:58:54.982Z,96.70
2023-02-22T15:04:22.577Z,96.80
2023-02-22T15:09:37.487Z,96.70
2023-02-22T15:14:41.079Z,96.80
2023-02-22T15:19:43.069Z,96.80
2023-02-22T15:24:55.215Z,97.00
2023-02-22T15:30:04.441Z,96.70
2023-02-22T15:35:23.918Z,96.70
2023-02-22T15:40:33.020Z,96.40
2023-02-22T15:45:35.403Z,96.10
2023-02-22T15:50:37.502Z,96.00
2023-02-22T15:55:47.406Z,96.00
2023-02-22T16:01:02.747Z,96.00
2023-02-22T16:06:10.725Z,95.80
2023-02-22T16:11:31.954Z,95.80
2023-02-22T16:16:37.025Z,95.70
2023-02-22T16:22:26.708Z,95.60
2023-02-22T16:27:28.557Z,95.50
2023-02-22T16:32:30.448Z,95.40
2023-02-22T16:37:32.276Z,95.40
2023-02-22T16:42:34.130Z,95.20
2023-02-22T16:47:35.964Z,95.20
2023-02-22T16:52:41.331Z,95.20
2023-02-22T16:57:44.490Z,95.20
2023-02-22T17:02:46.394Z,95.10
2023-02-22T17:07:48.259Z,95.00
2023-02-22T17:12:53.331Z,94.90
2023-02-22T17:17:56.556Z,94.90
2023-02-22T17:23:02.967Z,94.90
2023-02-22T17:28:05.555Z,94.80
2023-02-22T17:33:09.968Z,94.80
2023-02-22T17:38:11.762Z,94.80
2023-02-22T17:43:14.481Z,94.80
2023-02-22T17:48:18.309Z,94.80
2023-02-22T17:53:22.755Z,94.80
2023-02-22T17:58:28.875Z,94.80
2023-02-22T18:03:31.523Z,94.80
2023-02-22T18:08:39.180Z,94.80
2023-02-22T18:13:41.338Z,94.80
2023-02-22T18:18:43.977Z,94.90
2023-02-22T18:23:46.066Z,94.90
2023-02-22T18:28:48.881Z,94.90
2023-02-22T18:33:51.787Z,94.90
2023-02-22T18:38:54.738Z,94.90
2023-02-22T18:44:00.339Z,94.90
2023-02-22T18:49:02.338Z,94.90
2023-02-22T18:54:04.212Z,94.90
2023-02-22T18:59:09.152Z,94.90
2023-02-22T19:04:12.580Z,94.90
2023-02-22T19:09:14.480Z,94.90
2023-02-22T19:14:17.340Z,94.90
2023-02-22T19:19:20.958Z,94.90
2023-02-22T19:24:22.864Z,94.90
2023-02-22T19:29:24.668Z,94.90
2023-02-22T19:34:26.543Z,95.20
2023-02-22T19:39:29.248Z,94.90
2023-02-22T19:44:31.091Z,94.90
2023-02-22T19:49:32.927Z,94.90
2023-02-22T19:54:34.816Z,95.00
2023-02-22T19:59:36.829Z,94.90
2023-02-22T20:04:38.714Z,94.80
2023-02-22T20:09:40.601Z,94.80
2023-02-22T20:14:42.640Z,94.90
2023-02-22T20:19:44.433Z,94.80
2023-02-22T20:24:47.524Z,94.80
2023-02-22T20:29:49.450Z,94.90
2023-02-22T20:34:51.334Z,94.90
2023-02-22T20:39:53.207Z,95.00
2023-02-22T20:44:55.246Z,95.00
2023-02-22T20:49:57.142Z,95.00
2023-02-22T20:54:59.026Z,95.10
2023-02-22T21:00:00.818Z,95.10
2023-02-22T21:05:02.740Z,95.10
2023-02-22T21:10:06.656Z,95.10
2023-02-22T21:15:09.033Z,95.10
2023-02-22T21:20:12.244Z,95.10
2023-02-22T21:25:16.544Z,95.10
2023-02-22T21:30:19.180Z,95.10
2023-02-22T21:35:25.562Z,95.20
2023-02-22T21:40:27.530Z,95.20
2023-02-22T21:45:29.496Z,95.20
2023-02-22T21:50:31.832Z,95.20
2023-02-22T21:55:33.930Z,95.20
2023-02-22T22:00:39.089Z,95.10
2023-02-22T22:05:45.137Z,95.10
2023-02-22T22:10:57.393Z,95.20
2023-02-22T22:16:04.350Z,95.20
2023-02-22T22:21:12.520Z,95.20
2023-02-22T22:26:20.008Z,95.20
2023-02-22T22:31:23.949Z,95.20
2023-02-22T22:36:27.284Z,95.10
2023-02-22T22:41:29.249Z,95.10
2023-02-22T22:46:31.584Z,95.10
2023-02-22T22:51:33.860Z,95.10
2023-02-22T22:56:38.000Z,95.10
2023-02-22T23:01:44.426Z,95.10
2023-02-22T23:06:51.706Z,95.10
2023-02-22T23:11:56.173Z,95.10
2023-02-22T23:17:03.624Z,95.20
2023-02-22T23:22:07.037Z,95.20
2023-02-22T23:27:10.726Z,95.20
2023-02-22T23:32:14.211Z,95.20
2023-02-22T23:37:19.224Z,95.20
2023-02-22T23:42:22.996Z,95.20
2023-02-22T23:47:24.910Z,95.30
2023-02-22T23:52:29.847Z,95.30
2023-02-22T23:57:32.810Z,95.40
